Time;durP1;ratioP1;P1;durP2;ratioP2;P2;SDS_P1;SDS_P2;PMS_P1;PMS_P2;Temp;Humidity;BMP_temperature;BMP_pressure;BME280_temperature;BME280_humidity;BME280_pressure;Samples;Min_cycle;Max_cycle;Signal;HPM_P1;HPM_P2
2021/01/30 00:00:28;;;;;;;101.13;55.53;;;;;;;;;;4253484;33;20224;-56
2021/01/30 00:02:54;;;;;;;88.23;46.43;;;;;;;;;;4266921;33;20254;-54
2021/01/30 00:05:20;;;;;;;73.97;44.20;;;;;;;;;;4277879;33;20405;-54
2021/01/30 00:07:45;;;;;;;72.90;41.03;;;;;;;;;;4267026;33;20352;-54
2021/01/30 00:10:13;;;;;;;67.07;37.97;;;;;;;;;;4269692;33;20255;-53
2021/01/30 00:12:39;;;;;;;71.20;38.77;;;;;;;;;;4254553;33;20280;-53
2021/01/30 00:15:06;;;;;;;73.67;42.43;;;;;;;;;;4273147;33;20329;-55
2021/01/30 00:17:32;;;;;;;68.20;40.93;;;;;;;;;;4266993;33;20232;-55
2021/01/30 00:19:57;;;;;;;86.53;51.00;;;;;;;;;;4259302;33;20725;-55
2021/01/30 00:22:25;;;;;;;84.57;49.60;;;;;;;;;;4265218;33;20322;-55
2021/01/30 00:24:51;;;;;;;87.40;50.53;;;;;;;;;;4267351;33;20411;-56
2021/01/30 00:27:21;;;;;;;84.27;51.33;;;;;;;;;;4265199;33;20256;-56
2021/01/30 00:29:48;;;;;;;81.27;52.20;;;;;;;;;;4266839;33;20208;-55
2021/01/30 00:32:17;;;;;;;84.90;50.73;;;;;;;;;;4266493;33;20595;-52
2021/01/30 00:34:43;;;;;;;82.50;49.97;;;;;;;;;;4262889;33;20220;-55
2021/01/30 00:37:14;;;;;;;80.17;43.80;;;;;;;;;;4263049;33;20341;-55
2021/01/30 00:39:40;;;;;;;62.30;36.20;;;;;;;;;;4265680;33;20280;-53
2021/01/30 00:42:07;;;;;;;58.47;33.83;;;;;;;;;;4265886;33;20254;-52
2021/01/30 00:44:34;;;;;;;56.27;32.77;;;;;;;;;;4277904;33;20267;-53
2021/01/30 00:47:00;;;;;;;53.77;33.13;;;;;;;;;;4266956;33;20224;-53
2021/01/30 00:49:26;;;;;;;58.77;36.33;;;;;;;;;;4256462;33;20370;-55
2021/01/30 00:51:52;;;;;;;59.00;35.43;;;;;;;;;;4254698;33;20806;-55
2021/01/30 00:54:18;;;;;;;60.40;37.23;;;;;;;;;;4268671;33;20680;-55
2021/01/30 00:56:48;;;;;;;58.03;37.60;;;;;;;;;;4267773;33;20323;-56
2021/01/30 00:59:14;;;;;;;57.13;35.23;;;;;;;;;;4263652;33;20310;-55
2021/01/30 01:01:40;;;;;;;45.67;30.73;;;;;;;;;;4270267;33;20382;-52
2021/01/30 01:04:05;;;;;;;45.87;29.90;;;;;;;;;;4264546;33;20279;-52
2021/01/30 01:06:32;;;;;;;45.03;30.10;;;;;;;;;;4268480;33;20250;-53
2021/01/30 01:08:59;;;;;;;46.13;30.40;;;;;;;;;;4269679;33;20246;-53
2021/01/30 01:11:25;;;;;;;54.77;31.33;;;;;;;;;;4268892;33;20361;-53
2021/01/30 01:13:52;;;;;;;53.87;33.70;;;;;;;;;;4272039;33;20213;-56
2021/01/30 01:16:18;;;;;;;55.50;33.97;;;;;;;;;;4268839;33;20224;-53
2021/01/30 01:18:47;;;;;;;64.30;36.80;;;;;;;;;;4271340;33;20477;-55
2021/01/30 01:21:13;;;;;;;56.83;35.90;;;;;;;;;;4269269;33;20605;-55
2021/01/30 01:23:42;;;;;;;57.50;35.47;;;;;;;;;;4271257;33;20224;-52
2021/01/30 01:26:09;;;;;;;60.00;36.87;;;;;;;;;;4269366;33;20574;-54
2021/01/30 01:28:35;;;;;;;64.03;38.33;;;;;;;;;;4275119;33;20318;-52
2021/01/30 01:31:02;;;;;;;60.47;36.00;;;;;;;;;;4271930;33;20246;-52
2021/01/30 01:33:28;;;;;;;53.80;35.33;;;;;;;;;;4274877;33;20295;-53
2021/01/30 01:35:54;;;;;;;59.63;36.10;;;;;;;;;;4271881;33;20309;-52
2021/01/30 01:38:20;;;;;;;54.13;34.70;;;;;;;;;;4272092;33;20703;-54
2021/01/30 01:40:45;;;;;;;46.87;31.80;;;;;;;;;;4272879;33;20333;-55
2021/01/30 01:43:15;;;;;;;54.07;29.83;;;;;;;;;;4271866;33;20264;-53
2021/01/30 01:45:41;;;;;;;44.40;30.07;;;;;;;;;;4254789;33;20323;-55
2021/01/30 01:48:18;;;;;;;54.57;34.20;;;;;;;;;;4272054;33;20394;-54
2021/01/30 01:50:47;;;;;;;56.37;33.50;;;;;;;;;;4269562;33;20621;-54
2021/01/30 01:53:20;;;;;;;48.97;31.50;;;;;;;;;;4273144;33;20339;-53
2021/01/30 01:55:51;;;;;;;52.63;32.07;;;;;;;;;;4270577;33;20271;-53
2021/01/30 01:58:18;;;;;;;54.07;31.67;;;;;;;;;;4269871;33;20266;-58
2021/01/30 02:00:46;;;;;;;54.20;35.87;;;;;;;;;;4269944;33;20291;-58
2021/01/30 02:03:12;;;;;;;58.77;38.63;;;;;;;;;;4267303;33;20366;-58
2021/01/30 02:05:39;;;;;;;64.53;36.80;;;;;;;;;;4270625;33;20673;-58
2021/01/30 02:08:10;;;;;;;51.30;31.13;;;;;;;;;;4269791;33;20326;-57
2021/01/30 02:10:43;;;;;;;43.47;26.30;;;;;;;;;;4266900;33;20242;-53
2021/01/30 02:13:20;;;;;;;41.87;26.53;;;;;;;;;;4257747;33;20246;-53
2021/01/30 02:15:50;;;;;;;40.73;25.47;;;;;;;;;;4267833;33;20583;-58
2021/01/30 02:18:27;;;;;;;42.30;24.73;;;;;;;;;;4266083;33;20650;-57
2021/01/30 02:21:08;;;;;;;44.40;25.87;;;;;;;;;;4267344;33;20328;-53
2021/01/30 02:24:05;;;;;;;41.33;25.90;;;;;;;;;;4267979;33;20208;-53
2021/01/30 02:27:03;;;;;;;37.63;26.13;;;;;;;;;;4264503;33;20307;-53
2021/01/30 02:29:49;;;;;;;40.40;25.03;;;;;;;;;;4268240;33;20275;-56
2021/01/30 02:32:38;;;;;;;45.83;29.07;;;;;;;;;;4265497;33;20609;-56
2021/01/30 02:35:22;;;;;;;47.13;27.87;;;;;;;;;;4268246;33;20255;-52
2021/01/30 02:38:17;;;;;;;38.53;24.00;;;;;;;;;;4267858;33;20240;-52
2021/01/30 02:40:48;;;;;;;34.50;22.70;;;;;;;;;;4268457;33;20233;-57
2021/01/30 02:43:18;;;;;;;35.73;22.20;;;;;;;;;;4267443;33;20200;-56
2021/01/30 02:45:58;;;;;;;37.23;23.53;;;;;;;;;;4266684;33;20331;-51
2021/01/30 02:48:36;;;;;;;44.03;27.93;;;;;;;;;;4266976;33;20689;-51
2021/01/30 02:51:05;;;;;;;53.33;31.07;;;;;;;;;;4267518;33;20215;-51
2021/01/30 02:53:44;;;;;;;52.17;31.60;;;;;;;;;;4271473;33;20254;-51
2021/01/30 02:56:12;;;;;;;48.23;30.53;;;;;;;;;;4267476;33;20736;-57
2021/01/30 02:58:57;;;;;;;45.77;29.67;;;;;;;;;;4268714;33;20261;-58
2021/01/30 03:01:24;;;;;;;63.20;35.80;;;;;;;;;;4268561;33;20323;-52
2021/01/30 03:03:54;;;;;;;57.57;32.70;;;;;;;;;;4267497;33;20317;-52
2021/01/30 03:06:45;;;;;;;70.73;34.67;;;;;;;;;;4266372;33;20611;-52
2021/01/30 03:09:37;;;;;;;76.60;39.27;;;;;;;;;;4268642;33;20429;-53
2021/01/30 03:12:28;;;;;;;63.27;29.50;;;;;;;;;;4267221;33;20233;-52
2021/01/30 03:14:59;;;;;;;60.80;27.20;;;;;;;;;;4278564;33;20319;-53
2021/01/30 03:17:30;;;;;;;49.37;25.80;;;;;;;;;;4268728;33;20231;-61
2021/01/30 03:19:57;;;;;;;45.57;26.37;;;;;;;;;;4269519;33;20236;-54
2021/01/30 03:22:24;;;;;;;42.27;23.90;;;;;;;;;;4266831;33;20299;-53
2021/01/30 03:24:50;;;;;;;48.20;25.50;;;;;;;;;;4270320;33;20209;-53
2021/01/30 03:27:27;;;;;;;37.83;22.80;;;;;;;;;;4266375;33;20272;-53
2021/01/30 03:29:55;;;;;;;35.93;20.07;;;;;;;;;;4268288;33;20576;-59
2021/01/30 03:32:22;;;;;;;31.97;21.53;;;;;;;;;;4254270;33;20323;-57
2021/01/30 03:34:50;;;;;;;40.10;22.43;;;;;;;;;;4261175;33;20229;-57
2021/01/30 03:37:18;;;;;;;44.57;27.17;;;;;;;;;;4266210;33;20870;-57
2021/01/30 03:39:44;;;;;;;39.83;24.07;;;;;;;;;;4267630;33;20232;-52
2021/01/30 03:42:10;;;;;;;35.73;23.50;;;;;;;;;;4267093;33;20358;-57
2021/01/30 03:44:36;;;;;;;37.23;23.47;;;;;;;;;;4268138;33;20688;-53
2021/01/30 03:47:01;;;;;;;36.50;23.63;;;;;;;;;;4266175;33;20588;-56
2021/01/30 03:49:28;;;;;;;31.87;19.80;;;;;;;;;;4267725;33;20280;-57
2021/01/30 03:51:54;;;;;;;35.43;20.40;;;;;;;;;;4266556;33;20268;-57
2021/01/30 03:54:19;;;;;;;31.73;21.13;;;;;;;;;;4270773;33;20259;-52
2021/01/30 03:56:45;;;;;;;33.53;21.50;;;;;;;;;;4265307;33;20742;-52
2021/01/30 03:59:23;;;;;;;41.70;23.93;;;;;;;;;;4267745;33;20319;-56
2021/01/30 04:01:49;;;;;;;38.50;23.30;;;;;;;;;;4265364;33;20323;-52
2021/01/30 04:04:14;;;;;;;33.67;22.90;;;;;;;;;;4265316;33;20339;-53
2021/01/30 04:06:46;;;;;;;48.30;31.90;;;;;;;;;;4266368;33;20441;-53
2021/01/30 04:09:12;;;;;;;37.23;24.97;;;;;;;;;;4267546;33;20249;-57
2021/01/30 04:11:41;;;;;;;28.97;17.50;;;;;;;;;;4264399;33;20400;-53
2021/01/30 04:14:06;;;;;;;30.83;18.20;;;;;;;;;;4270859;33;20208;-57
2021/01/30 04:16:32;;;;;;;36.43;19.33;;;;;;;;;;4262870;33;20694;-53
2021/01/30 04:18:58;;;;;;;28.43;17.93;;;;;;;;;;4259607;33;20990;-52
2021/01/30 04:21:24;;;;;;;35.87;20.87;;;;;;;;;;4271495;33;20256;-52
2021/01/30 04:23:50;;;;;;;29.00;19.73;;;;;;;;;;4271253;33;20737;-58
2021/01/30 04:26:17;;;;;;;25.07;17.70;;;;;;;;;;4271436;33;20228;-53
2021/01/30 04:28:43;;;;;;;20.53;14.10;;;;;;;;;;4271221;33;20239;-53
2021/01/30 04:31:10;;;;;;;22.60;15.00;;;;;;;;;;4269573;33;20216;-52
2021/01/30 04:33:36;;;;;;;33.23;20.20;;;;;;;;;;4257992;33;20430;-52
2021/01/30 04:36:03;;;;;;;39.97;20.23;;;;;;;;;;4270328;33;20224;-58
2021/01/30 04:38:28;;;;;;;52.33;26.33;;;;;;;;;;4269805;33;20238;-52
2021/01/30 04:41:00;;;;;;;64.87;29.83;;;;;;;;;;4280749;33;20331;-52
2021/01/30 04:43:31;;;;;;;44.83;25.43;;;;;;;;;;4269879;33;20294;-57
2021/01/30 04:45:57;;;;;;;57.07;28.63;;;;;;;;;;4269168;33;20398;-58
2021/01/30 04:48:50;;;;;;;56.40;30.10;;;;;;;;;;4270658;33;20339;-57
2021/01/30 04:51:37;;;;;;;72.67;33.90;;;;;;;;;;4272139;33;20558;-52
2021/01/30 04:54:44;;;;;;;58.77;31.83;;;;;;;;;;4271132;33;20345;-52
2021/01/30 04:57:44;;;;;;;56.27;34.67;;;;;;;;;;4251006;33;20813;-52
2021/01/30 05:00:22;;;;;;;57.53;28.40;;;;;;;;;;4275386;33;20252;-52
2021/01/30 05:02:48;;;;;;;65.73;36.47;;;;;;;;;;4279073;33;20485;-60
2021/01/30 05:05:16;;;;;;;61.90;37.40;;;;;;;;;;4268878;33;20382;-59
2021/01/30 05:07:49;;;;;;;60.17;34.17;;;;;;;;;;4270292;33;20569;-53
2021/01/30 05:10:36;;;;;;;70.93;36.63;;;;;;;;;;4269781;33;20330;-59
2021/01/30 05:13:24;;;;;;;56.70;35.27;;;;;;;;;;4271076;33;20251;-59
2021/01/30 05:15:57;;;;;;;48.20;30.70;;;;;;;;;;4272925;33;20285;-58
2021/01/30 05:18:35;;;;;;;40.50;24.70;;;;;;;;;;4271835;33;20221;-54
2021/01/30 05:21:18;;;;;;;27.87;16.90;;;;;;;;;;4268413;33;20339;-54
2021/01/30 05:23:51;;;;;;;32.93;20.87;;;;;;;;;;4282349;33;20346;-53
2021/01/30 05:26:38;;;;;;;37.03;25.43;;;;;;;;;;4271379;33;20403;-53
2021/01/30 05:29:13;;;;;;;38.30;25.97;;;;;;;;;;4270732;33;20251;-58
2021/01/30 05:32:13;;;;;;;48.80;31.03;;;;;;;;;;4279758;33;20294;-53
2021/01/30 05:34:56;;;;;;;32.97;23.03;;;;;;;;;;4269563;33;20336;-59
2021/01/30 05:37:51;;;;;;;30.17;20.70;;;;;;;;;;4268034;33;20479;-53
2021/01/30 05:40:30;;;;;;;34.70;21.80;;;;;;;;;;4264375;33;20346;-52
2021/01/30 05:43:31;;;;;;;29.90;19.00;;;;;;;;;;4277306;33;20264;-53
2021/01/30 05:46:00;;;;;;;31.40;17.70;;;;;;;;;;4253130;33;21093;-53
2021/01/30 05:48:46;;;;;;;30.80;19.53;;;;;;;;;;4268751;33;20235;-53
2021/01/30 05:51:25;;;;;;;32.33;20.30;;;;;;;;;;4268229;33;20303;-54
2021/01/30 05:53:50;;;;;;;36.27;25.40;;;;;;;;;;4267682;33;20196;-54
2021/01/30 05:56:16;;;;;;;40.73;26.47;;;;;;;;;;4269575;33;20337;-52
2021/01/30 05:58:44;;;;;;;45.20;27.40;;;;;;;;;;4258667;33;20642;-54
2021/01/30 06:01:16;;;;;;;33.77;26.07;;;;;;;;;;4265769;33;20670;-59
2021/01/30 06:03:59;;;;;;;43.63;30.73;;;;;;;;;;4268629;33;20310;-60
2021/01/30 06:06:29;;;;;;;33.17;22.23;;;;;;;;;;4266045;33;20398;-59
2021/01/30 06:09:01;;;;;;;12.90;9.80;;;;;;;;;;4272637;33;20306;-53
2021/01/30 06:11:27;;;;;;;8.37;5.50;;;;;;;;;;4268398;33;20248;-60
2021/01/30 06:14:03;;;;;;;24.47;17.13;;;;;;;;;;4271225;33;20242;-60
2021/01/30 06:16:48;;;;;;;25.27;17.00;;;;;;;;;;4268157;33;20239;-53
2021/01/30 06:19:17;;;;;;;16.20;11.10;;;;;;;;;;4269220;33;20236;-54
2021/01/30 06:21:45;;;;;;;16.40;10.83;;;;;;;;;;4270436;33;20229;-52
2021/01/30 06:24:30;;;;;;;24.87;14.70;;;;;;;;;;4268830;33;20239;-57
2021/01/30 06:27:01;;;;;;;27.47;18.63;;;;;;;;;;4268541;33;20352;-57
2021/01/30 06:29:53;;;;;;;28.10;16.93;;;;;;;;;;4268702;33;20208;-58
2021/01/30 06:32:20;;;;;;;22.60;12.43;;;;;;;;;;4267813;33;20287;-60
2021/01/30 06:34:48;;;;;;;13.03;8.70;;;;;;;;;;4268413;33;20224;-58
2021/01/30 06:37:29;;;;;;;15.37;10.77;;;;;;;;;;4251213;33;20740;-59
2021/01/30 06:40:05;;;;;;;9.50;6.67;;;;;;;;;;4278495;33;21465;-59
2021/01/30 06:42:34;;;;;;;9.70;7.83;;;;;;;;;;4261871;33;20326;-53
2021/01/30 06:45:07;;;;;;;11.70;8.17;;;;;;;;;;4260511;33;20639;-54
2021/01/30 06:47:47;;;;;;;13.73;9.47;;;;;;;;;;4268010;33;20243;-53
2021/01/30 06:50:18;;;;;;;15.27;10.87;;;;;;;;;;4279585;33;20225;-57
2021/01/30 06:52:44;;;;;;;45.63;24.07;;;;;;;;;;4266701;33;20311;-52
2021/01/30 06:55:13;;;;;;;39.30;21.63;;;;;;;;;;4268566;33;20827;-59
2021/01/30 06:57:50;;;;;;;47.47;26.57;;;;;;;;;;4268468;33;20229;-59
2021/01/30 07:00:17;;;;;;;68.10;42.43;;;;;;;;;;4268612;33;20586;-59
2021/01/30 07:02:45;;;;;;;56.53;34.43;;;;;;;;;;4265261;33;20378;-59
2021/01/30 07:05:49;;;;;;;40.77;27.53;;;;;;;;;;4268157;33;20212;-53
2021/01/30 07:08:36;;;;;;;44.97;28.70;;;;;;;;;;4278212;33;20322;-53
2021/01/30 07:11:29;;;;;;;50.60;30.00;;;;;;;;;;4266723;33;20240;-53
2021/01/30 07:14:03;;;;;;;43.80;28.37;;;;;;;;;;4268551;33;20339;-52
2021/01/30 07:16:38;;;;;;;67.70;41.63;;;;;;;;;;4267587;33;20245;-53
2021/01/30 07:19:18;;;;;;;155.53;84.70;;;;;;;;;;4272020;33;20215;-56
2021/01/30 07:21:50;;;;;;;171.87;99.93;;;;;;;;;;4267672;33;20381;-52
2021/01/30 07:24:18;;;;;;;153.93;92.93;;;;;;;;;;4267470;33;20220;-55
2021/01/30 07:26:52;;;;;;;123.27;79.57;;;;;;;;;;4268080;33;20275;-53
2021/01/30 07:29:46;;;;;;;109.23;64.77;;;;;;;;;;4270227;33;20248;-53
2021/01/30 07:32:40;;;;;;;93.53;55.27;;;;;;;;;;4267773;33;20260;-53
2021/01/30 07:35:20;;;;;;;65.53;40.47;;;;;;;;;;4265952;33;20734;-55
2021/01/30 07:38:21;;;;;;;50.27;33.00;;;;;;;;;;4269935;33;20216;-56
2021/01/30 07:40:53;;;;;;;42.20;26.17;;;;;;;;;;4257681;33;20224;-56
2021/01/30 07:43:24;;;;;;;25.33;16.37;;;;;;;;;;4267749;33;20230;-54
2021/01/30 07:46:11;;;;;;;22.67;15.93;;;;;;;;;;4263073;33;20595;-56
2021/01/30 07:48:55;;;;;;;19.30;13.53;;;;;;;;;;4268466;33;20209;-51
2021/01/30 07:51:32;;;;;;;25.77;17.37;;;;;;;;;;4267117;33;20220;-52
2021/01/30 07:53:58;;;;;;;17.07;12.30;;;;;;;;;;4270052;33;20548;-56
2021/01/30 07:56:41;;;;;;;25.40;15.93;;;;;;;;;;4269934;33;20255;-54
2021/01/30 07:59:49;;;;;;;29.90;19.80;;;;;;;;;;4269986;33;20226;-55
2021/01/30 08:02:29;;;;;;;29.07;16.70;;;;;;;;;;4239903;33;20365;-51
2021/01/30 08:05:00;;;;;;;29.40;19.27;;;;;;;;;;4239728;33;20376;-56
2021/01/30 08:07:40;;;;;;;25.23;16.13;;;;;;;;;;4259789;33;20232;-52
2021/01/30 08:10:29;;;;;;;55.63;31.90;;;;;;;;;;4281843;33;20255;-57
2021/01/30 08:13:23;;;;;;;524.03;351.60;;;;;;;;;;4270150;33;20530;-55
2021/01/30 08:15:59;;;;;;;149.83;87.37;;;;;;;;;;4271355;33;20266;-51
2021/01/30 08:18:42;;;;;;;280.00;183.90;;;;;;;;;;4281342;33;20370;-51
2021/01/30 08:21:35;;;;;;;120.80;76.27;;;;;;;;;;4272511;33;20216;-51
2021/01/30 08:24:14;;;;;;;148.10;92.40;;;;;;;;;;4272951;33;20217;-53
2021/01/30 08:26:43;;;;;;;94.20;57.80;;;;;;;;;;4273994;33;20346;-54
2021/01/30 08:29:30;;;;;;;82.03;53.40;;;;;;;;;;4272100;33;20327;-56
2021/01/30 08:32:00;;;;;;;69.23;44.83;;;;;;;;;;4270484;33;20256;-59
2021/01/30 08:34:30;;;;;;;69.93;44.93;;;;;;;;;;4270194;33;20275;-60
2021/01/30 08:37:20;;;;;;;75.60;45.00;;;;;;;;;;4269434;33;20299;-58
2021/01/30 08:40:01;;;;;;;82.67;49.23;;;;;;;;;;4270023;33;20270;-56
2021/01/30 08:42:29;;;;;;;79.90;49.10;;;;;;;;;;4270108;33;20251;-57
2021/01/30 08:45:01;;;;;;;80.10;49.03;;;;;;;;;;4269976;33;20835;-59
2021/01/30 08:47:47;;;;;;;76.80;48.37;;;;;;;;;;4268205;33;20212;-52
2021/01/30 08:50:33;;;;;;;157.53;95.33;;;;;;;;;;4271110;33;20545;-52
2021/01/30 08:53:24;;;;;;;85.60;54.77;;;;;;;;;;4270828;33;20383;-52
2021/01/30 08:55:53;;;;;;;115.80;69.97;;;;;;;;;;4272969;33;20264;-52
2021/01/30 08:58:35;;;;;;;86.70;57.87;;;;;;;;;;4258583;33;20580;-56
2021/01/30 09:01:11;;;;;;;135.80;74.87;;;;;;;;;;4273618;33;20248;-55
2021/01/30 09:03:39;;;;;;;135.23;84.17;;;;;;;;;;4272951;33;20220;-55
2021/01/30 09:06:07;;;;;;;149.27;87.67;;;;;;;;;;4273405;33;20329;-52
2021/01/30 09:08:42;;;;;;;128.10;74.43;;;;;;;;;;4270063;33;20295;-56
2021/01/30 09:11:43;;;;;;;80.67;50.87;;;;;;;;;;4270588;33;20224;-52
2021/01/30 09:14:36;;;;;;;65.57;39.03;;;;;;;;;;4263224;33;20228;-54
2021/01/30 09:17:22;;;;;;;83.20;44.87;;;;;;;;;;4271705;33;20729;-56
2021/01/30 09:20:08;;;;;;;62.37;39.93;;;;;;;;;;4270509;33;20212;-51
2021/01/30 09:23:18;;;;;;;62.93;35.90;;;;;;;;;;4269654;33;20528;-57
2021/01/30 09:26:04;;;;;;;40.03;22.87;;;;;;;;;;4269563;33;20228;-57
2021/01/30 09:28:32;;;;;;;10.33;8.03;;;;;;;;;;4273084;33;20528;-51
2021/01/30 09:31:00;;;;;;;8.27;6.03;;;;;;;;;;4270376;33;20566;-52
2021/01/30 09:33:26;;;;;;;15.00;7.37;;;;;;;;;;4270180;33;20224;-57
2021/01/30 09:36:09;;;;;;;9.97;6.60;;;;;;;;;;4268934;33;20338;-51
2021/01/30 09:38:43;;;;;;;13.30;8.13;;;;;;;;;;4269678;33;20386;-52
2021/01/30 09:41:12;;;;;;;6.33;4.23;;;;;;;;;;4269859;33;20225;-57
2021/01/30 09:43:38;;;;;;;10.53;6.33;;;;;;;;;;4269213;33;20197;-51
2021/01/30 09:46:09;;;;;;;3.90;2.87;;;;;;;;;;4272708;33;20225;-51
2021/01/30 09:48:36;;;;;;;6.63;4.17;;;;;;;;;;4270463;33;20350;-52
2021/01/30 09:51:06;;;;;;;8.10;5.07;;;;;;;;;;4270325;33;20747;-56
2021/01/30 09:53:41;;;;;;;28.63;11.47;;;;;;;;;;4268845;33;20307;-51
2021/01/30 09:56:13;;;;;;;24.47;10.07;;;;;;;;;;4269865;33;20363;-55
2021/01/30 09:58:42;;;;;;;18.27;10.90;;;;;;;;;;4263746;33;20228;-52
2021/01/30 10:01:19;;;;;;;12.67;7.97;;;;;;;;;;4269401;33;20291;-51
2021/01/30 10:03:45;;;;;;;10.03;6.70;;;;;;;;;;4279284;33;20407;-56
2021/01/30 10:06:15;;;;;;;7.23;5.90;;;;;;;;;;4271930;33;20331;-58
2021/01/30 10:08:41;;;;;;;11.17;7.30;;;;;;;;;;4269684;33;20241;-57
2021/01/30 10:11:18;;;;;;;10.27;7.37;;;;;;;;;;4271078;33;20349;-52
2021/01/30 10:13:47;;;;;;;18.87;9.43;;;;;;;;;;4270288;33;20413;-56
2021/01/30 10:16:20;;;;;;;26.00;14.20;;;;;;;;;;4268194;33;20229;-56
2021/01/30 10:19:00;;;;;;;22.13;12.47;;;;;;;;;;4268102;33;20244;-56
2021/01/30 10:21:36;;;;;;;11.20;6.77;;;;;;;;;;4269901;33;20246;-56
2021/01/30 10:24:20;;;;;;;11.77;7.63;;;;;;;;;;4265854;33;20246;-56
2021/01/30 10:26:47;;;;;;;12.97;7.80;;;;;;;;;;4267247;33;20709;-51
2021/01/30 10:29:16;;;;;;;15.90;9.30;;;;;;;;;;4268866;33;20243;-55
2021/01/30 10:31:47;;;;;;;13.17;8.20;;;;;;;;;;4269129;33;20275;-56
2021/01/30 10:34:21;;;;;;;21.03;11.37;;;;;;;;;;4268896;33;20272;-52
2021/01/30 10:37:16;;;;;;;10.63;7.50;;;;;;;;;;4263851;33;20291;-52
2021/01/30 10:39:48;;;;;;;7.60;5.50;;;;;;;;;;4254278;33;20568;-56
2021/01/30 10:42:22;;;;;;;8.80;6.07;;;;;;;;;;4268476;33;20375;-62
2021/01/30 10:44:51;;;;;;;5.00;3.43;;;;;;;;;;4271553;33;20403;-57
2021/01/30 10:47:23;;;;;;;2.53;2.17;;;;;;;;;;4266445;33;20643;-55
2021/01/30 10:49:49;;;;;;;7.47;5.80;;;;;;;;;;4263244;33;20312;-56
2021/01/30 10:52:23;;;;;;;10.27;6.40;;;;;;;;;;4266855;33;20419;-55
2021/01/30 10:54:49;;;;;;;8.40;6.73;;;;;;;;;;4252948;33;20239;-53
2021/01/30 10:57:17;;;;;;;6.07;4.47;;;;;;;;;;4267098;33;20295;-53
2021/01/30 11:00:02;;;;;;;5.73;4.10;;;;;;;;;;4266141;33;20363;-57
2021/01/30 11:02:41;;;;;;;12.63;6.57;;;;;;;;;;4261300;33;20274;-52
2021/01/30 11:05:28;;;;;;;5.97;3.83;;;;;;;;;;4262693;33;20243;-53
2021/01/30 11:08:02;;;;;;;4.83;3.53;;;;;;;;;;4266845;33;20397;-53
2021/01/30 11:10:34;;;;;;;9.30;5.93;;;;;;;;;;4268622;33;20222;-52
2021/01/30 11:13:10;;;;;;;15.73;8.00;;;;;;;;;;4262044;33;20572;-51
2021/01/30 11:15:41;;;;;;;16.10;10.97;;;;;;;;;;4268017;33;20236;-52
2021/01/30 11:18:14;;;;;;;8.70;6.40;;;;;;;;;;4267660;33;20280;-53
2021/01/30 11:20:48;;;;;;;8.13;6.00;;;;;;;;;;4268202;33;20379;-52
2021/01/30 11:23:35;;;;;;;9.77;6.20;;;;;;;;;;4264376;33;20220;-55
2021/01/30 11:26:35;;;;;;;16.13;9.77;;;;;;;;;;4255344;33;20328;-55
2021/01/30 11:29:04;;;;;;;14.40;9.33;;;;;;;;;;4249353;33;20232;-53
2021/01/30 11:31:31;;;;;;;9.97;6.37;;;;;;;;;;4268250;33;20352;-53
2021/01/30 11:33:58;;;;;;;6.93;5.13;;;;;;;;;;4264327;33;20630;-52
2021/01/30 11:36:24;;;;;;;12.60;6.70;;;;;;;;;;4265438;33;20243;-53
2021/01/30 11:38:59;;;;;;;11.87;7.87;;;;;;;;;;4266989;33;20239;-51
2021/01/30 11:41:24;;;;;;;9.00;6.77;;;;;;;;;;4265471;33;20392;-52
2021/01/30 11:43:51;;;;;;;12.40;7.77;;;;;;;;;;4253920;33;20792;-53
2021/01/30 11:46:17;;;;;;;18.87;9.47;;;;;;;;;;4267040;33;20417;-54
2021/01/30 11:48:42;;;;;;;8.23;6.60;;;;;;;;;;4278685;33;20717;-57
2021/01/30 11:51:23;;;;;;;19.20;8.73;;;;;;;;;;4267553;33;20283;-52
2021/01/30 11:53:48;;;;;;;8.93;5.27;;;;;;;;;;4267453;33;20204;-52
2021/01/30 11:56:14;;;;;;;17.90;9.03;;;;;;;;;;4266937;33;20301;-52
2021/01/30 11:58:40;;;;;;;16.10;8.43;;;;;;;;;;4264874;33;20283;-55
2021/01/30 12:01:06;;;;;;;5.77;4.17;;;;;;;;;;4267947;33;20232;-55
2021/01/30 12:03:31;;;;;;;13.53;7.50;;;;;;;;;;4266001;33;20350;-52
2021/01/30 12:05:59;;;;;;;5.53;4.47;;;;;;;;;;4265394;33;20402;-53
2021/01/30 12:08:24;;;;;;;6.80;4.57;;;;;;;;;;4253083;33;20328;-53
2021/01/30 12:10:51;;;;;;;13.00;5.03;;;;;;;;;;4267664;33;20283;-53
2021/01/30 12:13:17;;;;;;;7.30;3.70;;;;;;;;;;4268198;33;20322;-56
2021/01/30 12:15:42;;;;;;;6.73;4.60;;;;;;;;;;4266516;33;20311;-56
2021/01/30 12:18:10;;;;;;;9.23;6.17;;;;;;;;;;4268227;33;20283;-53
2021/01/30 12:20:37;;;;;;;6.10;4.83;;;;;;;;;;4277460;33;20643;-53
2021/01/30 12:23:03;;;;;;;18.27;9.30;;;;;;;;;;4263956;33;20200;-55
2021/01/30 12:25:30;;;;;;;9.70;6.87;;;;;;;;;;4260058;33;20308;-55
2021/01/30 12:27:58;;;;;;;7.30;4.40;;;;;;;;;;4264067;33;20264;-57
2021/01/30 12:30:30;;;;;;;6.90;4.17;;;;;;;;;;4266576;33;20228;-53
2021/01/30 12:32:57;;;;;;;7.17;4.40;;;;;;;;;;4267314;33;20267;-55
2021/01/30 12:35:26;;;;;;;4.90;3.43;;;;;;;;;;4266362;33;20255;-55
2021/01/30 12:37:52;;;;;;;9.63;6.10;;;;;;;;;;4267527;33;20252;-55
2021/01/30 12:40:20;;;;;;;5.33;4.13;;;;;;;;;;4264469;33;20343;-55
2021/01/30 12:42:46;;;;;;;10.33;5.10;;;;;;;;;;4264904;33;20221;-55
2021/01/30 12:45:12;;;;;;;13.20;8.37;;;;;;;;;;4256825;33;20933;-57
2021/01/30 12:47:38;;;;;;;9.50;4.33;;;;;;;;;;4280381;33;20274;-57
2021/01/30 12:50:07;;;;;;;10.50;6.13;;;;;;;;;;4266211;33;20251;-53
2021/01/30 12:52:32;;;;;;;7.37;3.80;;;;;;;;;;4263358;33;20291;-56
2021/01/30 12:54:58;;;;;;;8.13;3.77;;;;;;;;;;4268478;33;20275;-58
2021/01/30 12:57:23;;;;;;;6.83;5.10;;;;;;;;;;4267691;33;20248;-53
2021/01/30 12:59:49;;;;;;;5.53;4.17;;;;;;;;;;4267616;33;20382;-53
2021/01/30 13:02:15;;;;;;;3.07;2.77;;;;;;;;;;4269664;33;20224;-54
2021/01/30 13:04:41;;;;;;;5.93;4.40;;;;;;;;;;4268786;33;20366;-57
2021/01/30 13:07:07;;;;;;;8.43;4.23;;;;;;;;;;4269359;33;20220;-58
2021/01/30 13:09:34;;;;;;;6.03;5.30;;;;;;;;;;4267289;33;20292;-55
2021/01/30 13:12:00;;;;;;;5.53;4.83;;;;;;;;;;4268078;33;20295;-56
2021/01/30 13:14:25;;;;;;;25.80;17.47;;;;;;;;;;4269589;33;20307;-57
2021/01/30 13:16:51;;;;;;;10.10;5.53;;;;;;;;;;4267819;33;20263;-56
2021/01/30 13:19:18;;;;;;;4.60;3.50;;;;;;;;;;4267624;33;20295;-58
2021/01/30 13:21:49;;;;;;;7.00;4.47;;;;;;;;;;4267082;33;20665;-53
2021/01/30 13:24:15;;;;;;;5.13;3.83;;;;;;;;;;4266340;33;20281;-52
2021/01/30 13:26:41;;;;;;;4.97;3.17;;;;;;;;;;4267686;33;20350;-53
2021/01/30 13:29:16;;;;;;;3.73;3.30;;;;;;;;;;4266003;33;20271;-56
2021/01/30 13:31:51;;;;;;;9.17;4.43;;;;;;;;;;4266573;33;20363;-56
2021/01/30 13:34:19;;;;;;;5.90;5.17;;;;;;;;;;4267692;33;20216;-56
2021/01/30 13:36:46;;;;;;;9.27;6.37;;;;;;;;;;4268289;33;20303;-56
2021/01/30 13:39:11;;;;;;;9.20;5.43;;;;;;;;;;4268521;33;20217;-56
2021/01/30 13:41:37;;;;;;;5.07;3.80;;;;;;;;;;4268527;33;20397;-55
2021/01/30 13:44:03;;;;;;;13.13;7.60;;;;;;;;;;4268955;33;20303;-55
2021/01/30 13:46:29;;;;;;;6.83;4.77;;;;;;;;;;4269613;33;20243;-52
2021/01/30 13:48:54;;;;;;;5.53;4.40;;;;;;;;;;4270055;33;20744;-53
2021/01/30 13:51:20;;;;;;;6.63;3.87;;;;;;;;;;4268358;33;20275;-52
2021/01/30 13:53:46;;;;;;;8.63;7.13;;;;;;;;;;4269261;33;20288;-53
2021/01/30 13:56:12;;;;;;;9.77;6.80;;;;;;;;;;4269838;33;20630;-52
2021/01/30 13:58:37;;;;;;;15.30;9.30;;;;;;;;;;4279195;33;20296;-53
2021/01/30 14:01:03;;;;;;;11.33;8.47;;;;;;;;;;4270451;33;20680;-56
2021/01/30 14:03:29;;;;;;;11.63;8.77;;;;;;;;;;4257894;33;20254;-55
2021/01/30 14:05:55;;;;;;;11.37;8.87;;;;;;;;;;4266980;33;20347;-56
2021/01/30 14:08:21;;;;;;;9.13;6.57;;;;;;;;;;4268351;33;20224;-57
2021/01/30 14:10:46;;;;;;;8.43;5.40;;;;;;;;;;4269367;33;20440;-56
2021/01/30 14:13:12;;;;;;;11.23;5.20;;;;;;;;;;4268341;33;20221;-57
2021/01/30 14:15:38;;;;;;;7.73;4.50;;;;;;;;;;4268296;33;20314;-57
2021/01/30 14:18:04;;;;;;;5.20;4.10;;;;;;;;;;4268082;33;20637;-56
2021/01/30 14:20:30;;;;;;;8.60;5.43;;;;;;;;;;4270057;33;20700;-57
2021/01/30 14:22:56;;;;;;;12.67;6.77;;;;;;;;;;4271624;33;20355;-56
2021/01/30 14:25:22;;;;;;;9.43;5.57;;;;;;;;;;4267920;33;20314;-53
2021/01/30 14:27:48;;;;;;;15.63;8.20;;;;;;;;;;4267660;33;20248;-52
2021/01/30 14:30:16;;;;;;;7.20;5.13;;;;;;;;;;4267603;33;20255;-52
2021/01/30 14:32:41;;;;;;;7.00;5.00;;;;;;;;;;4262188;33;20243;-51
2021/01/30 14:35:08;;;;;;;7.00;4.30;;;;;;;;;;4266900;33;20280;-56
2021/01/30 14:37:34;;;;;;;6.47;3.57;;;;;;;;;;4269644;33;20263;-56
2021/01/30 14:40:00;;;;;;;20.70;13.00;;;;;;;;;;4267455;33;20312;-56
2021/01/30 14:42:26;;;;;;;12.93;8.97;;;;;;;;;;4254984;33;20591;-55
2021/01/30 14:44:52;;;;;;;15.07;9.00;;;;;;;;;;4267009;33;20223;-56
2021/01/30 14:47:21;;;;;;;14.87;10.27;;;;;;;;;;4276638;33;20414;-56
2021/01/30 14:49:47;;;;;;;18.40;12.77;;;;;;;;;;4266864;33;20359;-56
2021/01/30 14:52:13;;;;;;;16.27;8.57;;;;;;;;;;4266964;33;20216;-53
2021/01/30 14:54:39;;;;;;;20.27;9.87;;;;;;;;;;4256431;33;20274;-53